Time;durP1;ratioP1;P1;durP2;ratioP2;P2;SDS_P1;SDS_P2;PMS_P1;PMS_P2;Temp;Humidity;BMP_temperature;BMP_pressure;BME280_temperature;BME280_humidity;BME280_pressure;Samples;Min_cycle;Max_cycle;Signal;HPM_P1;HPM_P2
2024/02/20 00:01:13;;;;;;;16.23;5.57;;;;;;;7.83;100.00;101461.56;6014451;23;20714;-76
2024/02/20 00:03:42;;;;;;;11.63;5.80;;;;;;;7.84;100.00;101464.97;6015312;23;20548;-76
2024/02/20 00:06:34;;;;;;;10.60;5.20;;;;;;;7.83;100.00;101455.53;6012047;23;20178;-74
2024/02/20 00:09:16;;;;;;;13.17;5.60;;;;;;;7.84;100.00;101460.50;6013897;23;20698;-76
2024/02/20 00:11:54;;;;;;;15.23;5.60;;;;;;;7.85;100.00;101461.28;6014423;23;20252;-75
2024/02/20 00:14:44;;;;;;;12.57;5.83;;;;;;;7.85;100.00;101458.66;6014057;23;20628;-75
2024/02/20 00:17:24;;;;;;;12.03;5.80;;;;;;;7.85;100.00;101467.31;6004663;23;20641;-76
2024/02/20 00:20:33;;;;;;;16.57;5.97;;;;;;;7.86;100.00;101471.50;6004738;23;20180;-76
2024/02/20 00:23:07;;;;;;;15.30;6.47;;;;;;;7.86;100.00;101468.09;6013515;23;20646;-76
2024/02/20 00:25:45;;;;;;;11.50;5.57;;;;;;;7.87;100.00;101469.69;6003833;23;20186;-76
2024/02/20 00:28:29;;;;;;;11.77;5.70;;;;;;;7.86;100.00;101468.88;6013098;23;20195;-76
2024/02/20 00:31:11;;;;;;;12.03;6.10;;;;;;;7.86;100.00;101468.88;6014086;23;20184;-76
2024/02/20 00:33:50;;;;;;;17.90;7.53;;;;;;;7.87;100.00;101461.78;5979573;23;20259;-76
2024/02/20 00:36:19;;;;;;;15.23;6.73;;;;;;;7.87;100.00;101464.41;6014409;23;20173;-76
2024/02/20 00:39:27;;;;;;;18.73;6.27;;;;;;;7.87;100.00;101459.16;6014672;23;20202;-75
2024/02/20 00:41:56;;;;;;;15.23;6.67;;;;;;;7.87;100.00;101467.81;6014602;23;20190;-76
2024/02/20 00:44:41;;;;;;;12.87;7.87;;;;;;;7.88;100.00;101471.22;6014974;23;20196;-76
2024/02/20 00:47:16;;;;;;;14.17;6.93;;;;;;;7.87;100.00;101470.44;6014221;23;20258;-76
2024/02/20 00:49:58;;;;;;;14.07;7.60;;;;;;;7.87;100.00;101462.56;6004860;23;20300;-75
2024/02/20 00:52:27;;;;;;;16.60;7.97;;;;;;;7.89;100.00;101464.91;5980104;23;20177;-76
2024/02/20 00:54:55;;;;;;;15.87;7.73;;;;;;;7.88;100.00;101466.75;6014704;23;20230;-76
2024/02/20 00:57:27;;;;;;;15.77;8.27;;;;;;;7.90;100.00;101464.63;6014104;23;20174;-76
2024/02/20 01:00:03;;;;;;;12.80;6.73;;;;;;;7.90;100.00;101463.81;6014317;23;20203;-76
2024/02/20 01:02:31;;;;;;;15.30;7.23;;;;;;;7.90;100.00;101455.94;5979630;23;20197;-75
2024/02/20 01:05:12;;;;;;;14.27;7.73;;;;;;;7.92;100.00;101459.09;6014686;23;20554;-76
2024/02/20 01:07:47;;;;;;;15.70;7.40;;;;;;;7.91;100.00;101455.66;6013123;23;20220;-75
2024/02/20 01:10:19;;;;;;;14.83;8.07;;;;;;;7.90;100.00;101446.22;5979316;23;20206;-75
2024/02/20 01:12:48;;;;;;;16.07;7.53;;;;;;;7.92;100.00;101445.94;6014746;23;20168;-76
2024/02/20 01:15:20;;;;;;;12.93;7.23;;;;;;;7.92;100.00;101448.56;6015041;23;20202;-76
2024/02/20 01:18:09;;;;;;;16.83;7.70;;;;;;;7.92;100.00;101440.69;6013952;23;20194;-76
2024/02/20 01:20:41;;;;;;;14.80;8.07;;;;;;;7.92;100.00;101435.41;6014928;23;20566;-75
2024/02/20 01:23:09;;;;;;;20.47;8.47;;;;;;;7.93;100.00;101439.59;6014649;23;20187;-76
2024/02/20 01:25:57;;;;;;;18.47;8.53;;;;;;;7.93;100.00;101439.59;5980886;23;20185;-76
2024/02/20 01:28:43;;;;;;;17.03;8.10;;;;;;;7.94;100.00;101441.16;6013432;23;20193;-76
2024/02/20 01:31:19;;;;;;;18.07;9.13;;;;;;;7.94;100.00;101436.69;5979348;23;20214;-76
2024/02/20 01:33:50;;;;;;;18.03;8.70;;;;;;;7.95;100.00;101442.72;6013927;23;20511;-75
2024/02/20 01:36:36;;;;;;;17.43;7.87;;;;;;;7.94;100.00;101449.84;6012624;23;20181;-76
2024/02/20 01:39:14;;;;;;;18.20;8.73;;;;;;;7.95;100.00;101442.72;6013412;23;20521;-76
2024/02/20 01:42:11;;;;;;;20.00;9.30;;;;;;;7.95;100.00;101440.88;6013634;23;20242;-76
2024/02/20 01:44:42;;;;;;;23.73;9.00;;;;;;;7.95;100.00;101438.25;6013822;23;20185;-76
2024/02/20 01:47:13;;;;;;;19.17;9.10;;;;;;;7.95;100.00;101432.19;6003331;23;20210;-76
2024/02/20 01:49:49;;;;;;;17.13;10.10;;;;;;;7.94;100.00;101428.00;6002231;23;20536;-76
2024/02/20 01:52:27;;;;;;;16.53;8.73;;;;;;;7.92;100.00;101430.91;5977755;23;20232;-76
2024/02/20 01:55:05;;;;;;;17.33;9.20;;;;;;;7.88;100.00;101434.41;6014526;23;20186;-76
2024/02/20 01:57:42;;;;;;;20.87;9.53;;;;;;;7.88;100.00;101423.91;6013267;23;20169;-76
2024/02/20 02:00:17;;;;;;;21.40;9.27;;;;;;;7.85;100.00;101427.09;6013255;23;20167;-76
2024/02/20 02:02:54;;;;;;;23.33;9.73;;;;;;;7.83;100.00;101432.63;6010950;23;20522;-76
2024/02/20 02:05:41;;;;;;;19.53;8.50;;;;;;;7.83;100.00;101424.75;6012488;23;20153;-76
2024/02/20 02:08:18;;;;;;;16.73;9.23;;;;;;;7.84;100.00;101428.16;6013346;23;20201;-76
2024/02/20 02:11:16;;;;;;;19.17;8.83;;;;;;;7.85;100.00;101432.34;6013074;23;20211;-76
2024/02/20 02:14:00;;;;;;;25.17;10.40;;;;;;;7.86;100.00;101431.28;6002116;23;20176;-76
2024/02/20 02:16:53;;;;;;;27.73;10.70;;;;;;;7.87;100.00;101424.97;6002742;23;20185;-76
2024/02/20 02:19:38;;;;;;;22.50;9.97;;;;;;;7.89;100.00;101434.13;5978139;23;20198;-76
2024/02/20 02:22:13;;;;;;;23.20;9.80;;;;;;;7.90;100.00;101427.00;6001793;23;20228;-75
2024/02/20 02:24:48;;;;;;;25.00;10.10;;;;;;;7.90;100.00;101432.28;6012483;23;20248;-76
2024/02/20 02:27:24;;;;;;;32.67;11.73;;;;;;;7.91;100.00;101424.09;6012939;23;20538;-75
2024/02/20 02:29:59;;;;;;;23.20;10.77;;;;;;;7.93;100.00;101418.56;6012694;23;20197;-76
2024/02/20 02:32:41;;;;;;;21.43;10.63;;;;;;;7.94;100.00;101434.06;6012905;23;20208;-74
2024/02/20 02:35:12;;;;;;;23.97;11.03;;;;;;;7.95;100.00;101424.31;6012311;23;20288;-76
2024/02/20 02:38:08;;;;;;;23.80;10.67;;;;;;;7.95;100.00;101430.38;5883955;24;20258;-75
2024/02/20 02:41:02;;;;;;;27.00;11.57;;;;;;;7.97;100.00;101424.81;5905215;23;20168;-76
2024/02/20 02:43:42;;;;;;;19.97;10.87;;;;;;;7.99;100.00;101430.56;5979532;23;20509;-76
2024/02/20 02:46:27;;;;;;;25.80;9.87;;;;;;;8.00;100.00;101426.84;6003090;23;20181;-76
2024/02/20 02:49:07;;;;;;;25.57;10.83;;;;;;;7.99;100.00;101423.47;6013738;23;20261;-75
2024/02/20 02:51:39;;;;;;;19.63;9.60;;;;;;;8.01;100.00;101426.56;6013220;23;20577;-76
2024/02/20 02:54:20;;;;;;;22.67;10.10;;;;;;;8.01;100.00;101417.91;6014018;23;20178;-76
2024/02/20 02:57:03;;;;;;;26.63;11.07;;;;;;;8.02;100.00;101428.13;6003299;23;20630;-75
2024/02/20 02:59:33;;;;;;;24.97;10.57;;;;;;;8.03;100.00;101415.78;6002747;23;20196;-76
2024/02/20 03:02:12;;;;;;;26.13;10.43;;;;;;;8.04;100.00;101417.34;6013238;23;20203;-76
2024/02/20 03:04:49;;;;;;;24.67;10.23;;;;;;;8.04;100.00;101428.66;6013332;23;20369;-75
2024/02/20 03:07:18;;;;;;;25.63;10.13;;;;;;;8.04;100.00;101431.28;5978666;23;20253;-75
2024/02/20 03:10:00;;;;;;;25.70;10.80;;;;;;;8.04;100.00;101435.75;6002062;23;20199;-76
2024/02/20 03:12:32;;;;;;;24.17;10.13;;;;;;;8.05;100.00;101426.78;6013960;23;20185;-75
2024/02/20 03:15:21;;;;;;;28.07;11.20;;;;;;;8.04;100.00;101433.91;6013052;23;20181;-76
2024/02/20 03:17:59;;;;;;;28.97;11.17;;;;;;;8.05;100.00;101442.56;6013463;23;20182;-76
2024/02/20 03:20:39;;;;;;;28.40;11.30;;;;;;;8.04;100.00;101441.81;6013734;23;20268;-76
2024/02/20 03:23:11;;;;;;;27.87;11.33;;;;;;;8.05;100.00;101438.09;6004181;23;20246;-76
2024/02/20 03:29:27;;;;;;;25.57;10.77;;;;;;;8.04;100.00;101436.53;6015149;23;20186;-76
2024/02/20 03:32:06;;;;;;;22.47;9.63;;;;;;;8.04;100.00;101436.53;6014781;23;20184;-76
2024/02/20 03:37:42;;;;;;;23.57;10.90;;;;;;;8.02;100.00;101446.53;6015649;23;20168;-76
2024/02/20 03:40:20;;;;;;;26.77;10.53;;;;;;;8.01;100.00;101455.50;6014919;23;20175;-76
2024/02/20 03:42:52;;;;;;;26.57;11.07;;;;;;;7.99;100.00;101444.50;6004306;23;20300;-76
2024/02/20 03:45:21;;;;;;;31.17;11.47;;;;;;;8.00;100.00;101447.91;6015037;23;20180;-76
2024/02/20 03:48:03;;;;;;;27.20;9.80;;;;;;;7.98;100.00;101453.44;6014730;23;20170;-76
2024/02/20 04:01:40;;;;;;;27.17;11.50;;;;;;;7.93;100.00;101455.38;6014592;23;20176;-76
2024/02/20 04:04:30;;;;;;;25.40;11.17;;;;;;;7.92;100.00;101461.72;6005069;23;20201;-76
2024/02/20 04:07:34;;;;;;;27.83;12.20;;;;;;;7.93;100.00;101458.78;6004594;23;20189;-76
2024/02/20 04:10:12;;;;;;;27.43;10.93;;;;;;;7.93;100.00;101469.28;6004576;23;20231;-74
2024/02/20 04:15:41;;;;;;;29.53;11.40;;;;;;;7.92;100.00;101472.22;6014803;23;20244;-76
2024/02/20 04:18:17;;;;;;;32.00;11.60;;;;;;;7.92;100.00;101474.88;6012116;23;20201;-76
2024/02/20 04:20:54;;;;;;;29.93;12.67;;;;;;;7.91;100.00;101478.53;6012530;23;20229;-76
2024/02/20 04:23:38;;;;;;;26.30;11.67;;;;;;;7.90;100.00;101482.22;6015375;23;20174;-76
2024/02/20 04:26:15;;;;;;;30.47;12.20;;;;;;;7.89;100.00;101483.31;6014695;23;20174;-75
2024/02/20 04:28:46;;;;;;;28.57;11.67;;;;;;;7.85;100.00;101482.31;6014648;23;20211;-76
2024/02/20 04:31:16;;;;;;;23.93;11.50;;;;;;;7.84;100.00;101491.28;6014880;23;20177;-76
2024/02/20 04:33:55;;;;;;;23.67;10.80;;;;;;;7.82;100.00;101496.81;6014370;23;20212;-76
2024/02/20 04:36:30;;;;;;;23.60;11.50;;;;;;;7.83;100.00;101489.72;5979260;23;20563;-76
2024/02/20 04:39:09;;;;;;;28.57;11.10;;;;;;;7.83;100.00;101487.09;6002072;23;20262;-75
2024/02/20 04:41:41;;;;;;;22.47;10.60;;;;;;;7.82;100.00;101494.19;6014586;23;20574;-76
2024/02/20 04:44:13;;;;;;;29.00;10.67;;;;;;;7.82;100.00;101502.06;6014408;23;20184;-75
2024/02/20 04:47:09;;;;;;;25.50;10.13;;;;;;;7.83;100.00;101503.63;6013757;23;20177;-76
2024/02/20 04:49:36;;;;;;;29.70;11.87;;;;;;;7.84;100.00;101499.94;6013703;23;20215;-76
2024/02/20 04:52:22;;;;;;;;;;;;;;;;;;;;;
2024/02/20 04:55:02;;;;;;;27.30;9.57;;;;;;;7.86;100.00;101503.06;6004425;23;20628;-76
2024/02/20 04:57:33;;;;;;;21.33;9.10;;;;;;;7.85;100.00;101506.75;6013968;23;20181;-75
2024/02/20 05:00:08;;;;;;;17.57;8.63;;;;;;;7.86;100.00;101497.81;6013314;23;20252;-76
2024/02/20 05:02:40;;;;;;;17.13;8.60;;;;;;;7.87;100.00;101517.00;6014030;23;20197;-76
2024/02/20 05:05:19;;;;;;;18.30;8.53;;;;;;;7.87;100.00;101511.75;6013347;23;20226;-76
2024/02/20 05:27:15;;;;;;;16.50;6.90;;;;;;;7.83;100.00;101521.25;5999957;23;20898;-75
2024/02/20 05:29:55;;;;;;;13.63;6.77;;;;;;;7.83;100.00;101522.03;6011274;23;20190;-76
2024/02/20 05:32:33;;;;;;;16.87;6.93;;;;;;;7.82;100.00;101520.47;6013823;23;20185;-74
2024/02/20 05:35:08;;;;;;;16.03;6.93;;;;;;;7.82;100.00;101527.59;6013018;23;20181;-76
2024/02/20 05:37:43;;;;;;;14.97;6.97;;;;;;;7.82;100.00;101527.59;6002269;23;20511;-76
2024/02/20 05:40:15;;;;;;;14.33;6.33;;;;;;;7.80;100.00;101527.88;6013007;23;20170;-75
2024/02/20 05:42:44;;;;;;;14.13;5.80;;;;;;;7.81;100.00;101529.44;5994794;23;20260;-75
2024/02/20 05:45:24;;;;;;;14.10;6.63;;;;;;;7.80;100.00;101525.25;6007299;23;20185;-75
2024/02/20 05:48:12;;;;;;;12.93;6.90;;;;;;;7.80;100.00;101522.59;5976583;23;20265;-76
2024/02/20 05:50:43;;;;;;;13.20;6.40;;;;;;;7.80;100.00;101519.19;6001808;23;20272;-76
2024/02/20 05:53:34;;;;;;;15.53;7.10;;;;;;;7.78;100.00;101529.22;6013825;23;20248;-74
2024/02/20 05:56:16;;;;;;;16.27;7.17;;;;;;;7.78;100.00;101527.38;6012869;23;20178;-75
2024/02/20 05:59:16;;;;;;;13.63;7.10;;;;;;;7.77;100.00;101533.69;6010253;23;20254;-76
2024/02/20 06:01:48;;;;;;;13.60;7.27;;;;;;;7.77;100.00;101531.06;6012242;23;20236;-76
2024/02/20 06:04:15;;;;;;;13.63;7.30;;;;;;;7.77;100.00;101544.19;6013585;23;20187;-75
2024/02/20 06:06:42;;;;;;;13.30;6.97;;;;;;;7.76;100.00;101549.75;6013760;23;20176;-76
2024/02/20 06:09:08;;;;;;;12.13;6.20;;;;;;;7.76;100.00;101544.50;6012956;23;20186;-75
2024/02/20 06:11:35;;;;;;;13.27;6.13;;;;;;;7.78;100.00;101545.00;6013888;23;20169;-74
2024/02/20 06:14:06;;;;;;;14.40;5.97;;;;;;;7.77;100.00;101551.31;6014248;23;20174;-75
2024/02/20 06:16:32;;;;;;;14.07;7.20;;;;;;;7.77;100.00;101551.31;6014201;23;20173;-75
2024/02/20 06:18:59;;;;;;;14.07;6.70;;;;;;;7.78;100.00;101555.50;5978152;23;20227;-75
2024/02/20 06:21:25;;;;;;;15.20;7.03;;;;;;;7.77;100.00;101569.72;6013703;23;20167;-75
2024/02/20 06:23:51;;;;;;;15.43;7.43;;;;;;;7.78;100.00;101561.56;6013470;23;20231;-75
2024/02/20 06:26:18;;;;;;;14.13;6.93;;;;;;;7.78;100.00;101571.28;6014423;23;20221;-75
2024/02/20 06:28:45;;;;;;;11.37;6.43;;;;;;;7.78;100.00;101571.28;6014244;23;20722;-76
2024/02/20 06:31:13;;;;;;;10.20;6.20;;;;;;;7.77;100.00;101574.97;5979533;23;20188;-76
2024/02/20 06:33:41;;;;;;;12.97;6.60;;;;;;;7.76;100.00;101568.94;6013877;23;20172;-74
2024/02/20 06:36:10;;;;;;;10.77;6.37;;;;;;;7.75;100.00;101577.09;5978933;23;20182;-75
2024/02/20 06:38:37;;;;;;;11.80;6.03;;;;;;;7.73;100.00;101564.25;6002599;23;20249;-76
2024/02/20 06:41:04;;;;;;;10.37;6.10;;;;;;;7.72;100.00;101575.81;6014545;23;20166;-76
2024/02/20 06:43:30;;;;;;;10.33;4.83;;;;;;;7.70;100.00;101577.16;6013534;23;20554;-75
2024/02/20 06:45:57;;;;;;;8.93;5.03;;;;;;;7.68;100.00;101585.34;6013943;23;20207;-75
2024/02/20 06:48:25;;;;;;;7.07;4.07;;;;;;;7.67;100.00;101586.38;6013829;23;20496;-75
2024/02/20 06:50:52;;;;;;;6.63;4.20;;;;;;;7.65;100.00;101598.25;6014132;23;20259;-75
2024/02/20 06:53:18;;;;;;;6.13;4.03;;;;;;;7.62;100.00;101599.59;6013681;23;20161;-75
2024/02/20 06:55:44;;;;;;;6.67;3.90;;;;;;;7.61;100.00;101605.16;6013651;23;20164;-75
2024/02/20 06:58:11;;;;;;;4.00;2.50;;;;;;;7.55;100.00;101604.41;6015595;23;20189;-75
2024/02/20 07:00:40;;;;;;;4.43;2.67;;;;;;;7.52;100.00;101619.97;6015403;23;20170;-76
2024/02/20 07:03:07;;;;;;;4.53;1.97;;;;;;;7.49;100.00;101615.25;5976530;23;20705;-75
2024/02/20 07:05:35;;;;;;;4.33;2.60;;;;;;;7.47;100.00;101625.28;6013683;23;20239;-76
2024/02/20 07:08:02;;;;;;;4.13;1.87;;;;;;;7.44;100.00;101628.44;6014880;23;20200;-75
2024/02/20 07:10:29;;;;;;;3.40;2.30;;;;;;;7.43;100.00;101634.75;6015086;23;20172;-75
2024/02/20 07:12:58;;;;;;;5.57;2.20;;;;;;;7.42;100.00;101635.84;6015185;23;20794;-76
2024/02/20 07:15:24;;;;;;;4.13;2.20;;;;;;;7.42;100.00;101636.63;6015245;23;20167;-76
2024/02/20 07:17:51;;;;;;;6.10;2.30;;;;;;;7.40;100.00;101637.97;6014839;23;20598;-76
2024/02/20 07:20:17;;;;;;;6.17;1.90;;;;;;;7.41;100.00;101631.66;6015434;23;20178;-75
2024/02/20 07:22:45;;;;;;;2.93;1.83;;;;;;;7.40;100.00;101628.22;5980833;23;20597;-75
2024/02/20 07:25:12;;;;;;;3.47;1.83;;;;;;;7.39;100.00;101633.75;6012398;23;20179;-75
2024/02/20 07:27:38;;;;;;;5.80;1.80;;;;;;;7.39;100.00;101639.78;6015615;23;20204;-76
2024/02/20 07:30:10;;;;;;;2.67;1.63;;;;;;;7.39;100.00;101639.78;6015001;23;20216;-76
2024/02/20 07:32:36;;;;;;;3.17;1.83;;;;;;;7.38;100.00;101640.88;6004637;23;20638;-76
2024/02/20 07:35:03;;;;;;;4.30;1.70;;;;;;;7.39;100.00;101641.63;6002888;23;20179;-75
2024/02/20 07:37:29;;;;;;;2.23;1.60;;;;;;;7.39;100.00;101641.63;6015093;23;20174;-75
2024/02/20 07:39:57;;;;;;;3.17;2.10;;;;;;;7.42;100.00;101643.72;6015923;23;20189;-76
2024/02/20 07:42:23;;;;;;;6.23;1.93;;;;;;;7.45;100.00;101643.94;6015477;23;20172;-75
2024/02/20 07:44:50;;;;;;;4.83;1.80;;;;;;;7.46;100.00;101642.09;6004206;23;20211;-75
2024/02/20 07:47:16;;;;;;;2.97;2.00;;;;;;;7.49;100.00;101649.41;6014882;23;20164;-76
2024/02/20 07:49:46;;;;;;;3.80;2.10;;;;;;;7.49;100.00;101652.84;6015277;23;20196;-76
2024/02/20 07:52:12;;;;;;;3.27;1.53;;;;;;;7.51;100.00;101653.31;6015417;23;20168;-76
2024/02/20 07:54:40;;;;;;;2.70;1.60;;;;;;;7.54;100.00;101654.63;6015254;23;20168;-75
2024/02/20 07:57:10;;;;;;;7.10;2.03;;;;;;;7.56;100.00;101663.78;6014527;23;20544;-77
2024/02/20 07:59:37;;;;;;;4.20;1.53;;;;;;;7.57;100.00;101664.59;6015140;23;20195;-76
2024/02/20 08:02:07;;;;;;;2.17;1.60;;;;;;;7.59;100.00;101670.34;6014980;23;20172;-75
2024/02/20 08:04:34;;;;;;;3.87;1.40;;;;;;;7.61;100.00;101665.59;6014571;23;20332;-75
2024/02/20 08:07:00;;;;;;;2.70;1.20;;;;;;;7.64;100.00;101660.56;6014237;23;20170;-76
2024/02/20 08:09:26;;;;;;;1.50;1.40;;;;;;;7.67;100.00;101656.59;6014491;23;20189;-75
2024/02/20 08:11:53;;;;;;;2.10;1.20;;;;;;;7.71;100.00;101668.13;6014551;23;20166;-75
2024/02/20 08:14:20;;;;;;;1.70;1.00;;;;;;;7.73;100.00;101663.34;6014504;23;20164;-75
2024/02/20 08:16:49;;;;;;;3.27;1.40;;;;;;;7.75;100.00;101666.47;5980100;23;20745;-75
2024/02/20 08:19:15;;;;;;;1.83;1.03;;;;;;;7.77;100.00;101665.13;6015139;23;20184;-76
2024/02/20 08:21:42;;;;;;;2.17;1.07;;;;;;;7.76;100.00;101671.47;6015166;23;20171;-76
2024/02/20 08:24:08;;;;;;;2.43;1.27;;;;;;;7.80;100.00;101676.94;6015001;23;20227;-75
2024/02/20 08:26:36;;;;;;;2.50;1.07;;;;;;;7.82;100.00;101677.47;6015594;23;20508;-76
2024/02/20 08:29:02;;;;;;;0.80;0.80;;;;;;;7.83;100.00;101673.75;6013889;23;20195;-75
2024/02/20 08:31:30;;;;;;;2.47;1.23;;;;;;;7.87;100.00;101678.16;6014548;23;20197;-75
2024/02/20 08:33:56;;;;;;;1.50;0.87;;;;;;;7.89;100.00;101675.28;6013574;23;20169;-75
2024/02/20 08:36:22;;;;;;;2.50;1.37;;;;;;;7.95;100.00;101674.94;6001351;23;20576;-76
2024/02/20 08:38:49;;;;;;;1.13;1.00;;;;;;;7.99;100.00;101670.69;5980490;23;20192;-75
2024/02/20 08:41:15;;;;;;;1.37;1.10;;;;;;;8.06;100.00;101676.38;6015045;23;20176;-76
2024/02/20 08:43:46;;;;;;;1.07;0.97;;;;;;;8.13;100.00;101676.03;6015093;23;20193;-76
2024/02/20 08:46:13;;;;;;;1.37;1.00;;;;;;;8.15;100.00;101676.53;6003540;23;20178;-75
2024/02/20 08:48:40;;;;;;;1.63;0.90;;;;;;;8.14;100.00;101674.97;6013890;23;20498;-75
2024/02/20 08:51:07;;;;;;;2.00;1.10;;;;;;;8.16;100.00;101678.09;6014530;23;20256;-75
2024/02/20 08:53:33;;;;;;;1.57;1.10;;;;;;;8.20;100.00;101687.03;6014984;23;20174;-75
2024/02/20 08:55:59;;;;;;;2.23;1.20;;;;;;;8.18;100.00;101683.88;6014728;23;20525;-75
2024/02/20 08:58:26;;;;;;;3.30;1.40;;;;;;;8.21;100.00;101688.59;6014012;23;20195;-75
2024/02/20 09:00:52;;;;;;;1.37;1.10;;;;;;;8.20;100.00;101690.44;5980941;23;20202;-75
2024/02/20 09:03:19;;;;;;;1.83;1.00;;;;;;;8.21;100.00;101689.38;6003249;23;20180;-76
2024/02/20 09:05:46;;;;;;;2.73;1.17;;;;;;;8.22;100.00;101688.31;6014821;23;20517;-75
2024/02/20 09:08:15;;;;;;;1.03;0.90;;;;;;;8.23;100.00;101691.72;6013469;23;20201;-75
2024/02/20 09:10:41;;;;;;;1.90;1.10;;;;;;;8.25;100.00;101697.47;6014859;23;20173;-76
2024/02/20 09:13:08;;;;;;;3.83;1.67;;;;;;;8.28;100.00;101700.31;5980679;23;20190;-75
2024/02/20 09:15:35;;;;;;;2.00;1.80;;;;;;;8.26;100.00;101709.56;5980104;23;20177;-75
2024/02/20 09:18:02;;;;;;;3.07;2.30;;;;;;;8.24;100.00;101701.19;6014427;23;20174;-75
2024/02/20 09:20:28;;;;;;;2.43;2.23;;;;;;;8.23;100.00;101708.28;6014211;23;20176;-75
2024/02/20 09:22:56;;;;;;;2.47;2.27;;;;;;;8.27;100.00;101704.03;6014384;23;20167;-75
2024/02/20 09:25:23;;;;;;;2.90;2.27;;;;;;;8.29;100.00;101715.03;6013451;23;20218;-75
2024/02/20 09:27:49;;;;;;;6.17;5.53;;;;;;;8.30;100.00;101708.75;6014894;23;20257;-75
2024/02/20 09:30:17;;;;;;;29.23;19.53;;;;;;;8.32;100.00;101716.31;6013992;23;20254;-75
2024/02/20 09:32:43;;;;;;;13.43;9.17;;;;;;;8.33;100.00;101715.28;6014884;23;20171;-75
2024/02/20 09:35:09;;;;;;;4.80;3.80;;;;;;;8.33;100.00;101716.06;6012686;23;20679;-76
2024/02/20 09:37:36;;;;;;;3.33;2.70;;;;;;;8.39;100.00;101725.44;6014279;23;20174;-75
2024/02/20 09:40:05;;;;;;;1.93;1.80;;;;;;;8.41;100.00;101722.53;5979985;23;20301;-75
2024/02/20 09:42:39;;;;;;;1.73;1.63;;;;;;;8.43;100.00;101723.06;5979156;23;20867;-75
2024/02/20 09:45:10;;;;;;;2.53;1.80;;;;;;;8.48;100.00;101729.03;5979807;23;20216;-75
2024/02/20 09:47:37;;;;;;;2.97;1.67;;;;;;;8.55;100.00;101733.94;5979692;23;20180;-75
2024/02/20 09:50:04;;;;;;;2.30;1.87;;;;;;;8.59;100.00;101740.97;6014181;23;20194;-76
2024/02/20 09:52:32;;;;;;;1.73;1.40;;;;;;;8.60;100.00;101739.16;5979234;23;20601;-75
2024/02/20 09:54:58;;;;;;;1.80;1.50;;;;;;;8.60;100.00;101732.00;6013732;23;20208;-75
2024/02/20 09:57:26;;;;;;;2.73;2.37;;;;;;;8.62;100.00;101745.69;6013185;23;20198;-75
2024/02/20 09:59:53;;;;;;;1.57;1.47;;;;;;;8.63;100.00;101738.56;6013427;23;20193;-74
2024/02/20 10:02:20;;;;;;;4.60;3.43;;;;;;;8.65;100.00;101739.06;6003574;23;20205;-75
2024/02/20 10:04:47;;;;;;;3.33;2.63;;;;;;;8.66;100.00;101736.16;5979295;23;20637;-75
2024/02/20 10:07:16;;;;;;;6.30;3.60;;;;;;;8.67;100.00;101731.66;6014053;23;20172;-75
2024/02/20 10:09:42;;;;;;;2.07;1.73;;;;;;;8.69;100.00;101734.81;6014129;23;20199;-75
2024/02/20 10:12:19;;;;;;;3.33;1.10;;;;;;;8.69;100.00;101729.56;6014797;23;20261;-75
2024/02/20 10:14:46;;;;;;;2.07;0.90;;;;;;;8.66;100.00;101732.75;6013802;23;20219;-75
2024/02/20 10:17:14;;;;;;;1.87;1.00;;;;;;;8.66;100.00;101732.75;6013724;23;20551;-75
2024/02/20 10:19:44;;;;;;;1.30;1.20;;;;;;;8.68;100.00;101735.84;6013456;23;20195;-75
2024/02/20 10:22:11;;;;;;;1.23;0.73;;;;;;;8.65;100.00;101736.44;6014541;23;20269;-75
2024/02/20 10:24:37;;;;;;;2.33;0.87;;;;;;;8.65;100.00;101733.81;6001876;23;20291;-74
2024/02/20 10:27:04;;;;;;;1.43;0.80;;;;;;;8.67;100.00;101740.34;6013699;23;20224;-75
2024/02/20 10:29:31;;;;;;;1.47;1.13;;;;;;;8.69;100.00;101734.81;5979331;23;20201;-75
2024/02/20 10:31:59;;;;;;;2.33;0.70;;;;;;;8.71;100.00;101736.09;6013692;23;20713;-75
2024/02/20 10:34:25;;;;;;;0.93;0.83;;;;;;;8.72;100.00;101742.13;5978188;23;20684;-75
2024/02/20 10:36:51;;;;;;;1.00;1.00;;;;;;;8.66;100.00;101753.81;6012928;23;20164;-75
2024/02/20 10:39:21;;;;;;;1.40;0.87;;;;;;;8.57;100.00;101756.28;6002849;23;20202;-75
2024/02/20 10:41:47;;;;;;;3.93;1.20;;;;;;;8.48;100.00;101752.72;5980236;23;20618;-76
2024/02/20 10:44:14;;;;;;;2.40;0.90;;;;;;;8.41;100.00;101744.38;6012443;23;20269;-75
2024/02/20 10:46:41;;;;;;;1.40;1.30;;;;;;;8.39;100.00;101737.84;6013437;23;20175;-74
2024/02/20 10:49:19;;;;;;;2.13;0.80;;;;;;;8.34;100.00;101741.31;6013693;23;20194;-75
2024/02/20 10:51:47;;;;;;;2.20;1.20;;;;;;;8.29;100.00;101743.22;6002843;23;20175;-75
2024/02/20 10:54:15;;;;;;;3.53;1.43;;;;;;;8.32;100.00;101730.28;5978929;23;20186;-75
2024/02/20 10:56:43;;;;;;;5.50;1.90;;;;;;;8.38;100.00;101733.66;6002999;23;20182;-76
2024/02/20 10:59:10;;;;;;;2.77;1.47;;;;;;;8.41;100.00;101725.97;6013734;23;20195;-75
2024/02/20 11:01:38;;;;;;;3.87;1.20;;;;;;;8.42;100.00;101724.09;6014617;23;20171;-75
2024/02/20 11:04:05;;;;;;;6.13;0.90;;;;;;;8.44;100.00;101729.88;6013940;23;20225;-75
2024/02/20 11:06:33;;;;;;;1.80;1.13;;;;;;;8.47;100.00;101731.94;6014295;23;20173;-75
2024/02/20 11:09:08;;;;;;;3.63;1.37;;;;;;;8.57;100.00;101729.97;6002702;23;20206;-75
2024/02/20 11:11:35;;;;;;;2.60;1.20;;;;;;;8.63;100.00;101738.56;6003307;23;20569;-75
2024/02/20 11:14:02;;;;;;;4.10;1.37;;;;;;;8.62;100.00;101750.16;6013650;23;20176;-75
2024/02/20 11:16:34;;;;;;;2.73;1.13;;;;;;;8.57;100.00;101748.38;6013785;23;20176;-75
2024/02/20 11:19:00;;;;;;;5.10;1.07;;;;;;;8.53;100.00;101749.22;6013995;23;20202;-74
2024/02/20 11:21:28;;;;;;;4.50;1.20;;;;;;;8.43;100.00;101744.13;6014148;23;20171;-75
2024/02/20 11:23:57;;;;;;;5.23;2.13;;;;;;;8.36;100.00;101739.19;5979471;23;20210;-75
2024/02/20 11:26:28;;;;;;;6.80;1.90;;;;;;;8.34;100.00;101732.63;6013808;23;20172;-75
2024/02/20 11:28:54;;;;;;;5.87;1.73;;;;;;;8.37;100.00;101732.06;6013362;23;20197;-75
2024/02/20 11:31:25;;;;;;;7.93;1.90;;;;;;;8.37;100.00;101732.06;6014183;23;20675;-75
2024/02/20 11:33:52;;;;;;;3.03;1.40;;;;;;;8.39;100.00;101733.34;6014066;23;20546;-76
2024/02/20 11:36:19;;;;;;;7.07;1.83;;;;;;;8.45;100.00;101728.81;6011759;23;20257;-75
2024/02/20 11:38:45;;;;;;;9.00;2.93;;;;;;;8.53;100.00;101730.78;6013375;23;20703;-75
2024/02/20 11:41:14;;;;;;;11.27;5.07;;;;;;;8.58;100.00;101726.25;6014235;23;20171;-75
2024/02/20 11:43:41;;;;;;;4.93;2.53;;;;;;;8.68;100.00;101726.13;6003341;23;20178;-75
2024/02/20 11:46:07;;;;;;;5.50;2.80;;;;;;;8.74;100.00;101732.88;6013692;23;20188;-75
2024/02/20 11:48:33;;;;;;;8.43;2.77;;;;;;;8.80;100.00;101737.00;6013892;23;20211;-75
2024/02/20 11:51:00;;;;;;;4.80;1.70;;;;;;;8.84;100.00;101734.56;5980951;23;20204;-75
2024/02/20 11:53:27;;;;;;;7.17;2.13;;;;;;;8.86;100.00;101727.19;6014534;23;20514;-75
2024/02/20 11:55:53;;;;;;;8.40;1.80;;;;;;;8.88;100.00;101736.38;6015090;23;20187;-75
2024/02/20 11:58:22;;;;;;;6.27;1.63;;;;;;;8.89;100.00;101734.50;6014358;23;20196;-74
2024/02/20 12:00:50;;;;;;;7.10;1.40;;;;;;;8.89;100.00;101731.88;5980100;23;20647;-75
2024/02/20 12:03:29;;;;;;;6.03;1.37;;;;;;;8.85;100.00;101739.56;6010652;23;20503;-75
2024/02/20 12:06:00;;;;;;;7.83;1.87;;;;;;;8.88;100.00;101731.09;6013268;23;20650;-75
2024/02/20 12:08:32;;;;;;;4.50;1.80;;;;;;;8.87;100.00;101736.66;5979231;23;20200;-75
2024/02/20 12:11:05;;;;;;;6.97;2.37;;;;;;;8.82;100.00;101731.44;6015033;23;20176;-76
2024/02/20 12:13:32;;;;;;;9.97;2.47;;;;;;;8.79;100.00;101724.13;6015476;23;20174;-75
2024/02/20 12:15:59;;;;;;;8.17;2.13;;;;;;;8.77;100.00;101732.31;6015124;23;20167;-75
2024/02/20 12:18:26;;;;;;;9.87;2.13;;;;;;;8.73;100.00;101739.22;6011930;23;20192;-75
2024/02/20 12:20:53;;;;;;;9.70;2.00;;;;;;;8.73;100.00;101746.31;6012528;23;20182;-75
2024/02/20 12:23:20;;;;;;;6.97;1.47;;;;;;;8.68;100.00;101739.28;6015340;23;20171;-75
2024/02/20 12:25:46;;;;;;;8.30;2.10;;;;;;;8.68;100.00;101744.56;6003549;23;20188;-75